sensor_id;sensor_type;location;lat;lon;timestamp;P1;durP1;ratioP1;P2;durP2;ratioP2
12768;SDS011;6448;48.916;8.990;2023-06-04T00:00:32;2.47;;;2.28;;
12768;SDS011;6448;48.916;8.990;2023-06-04T00:01:33;2.70;;;2.50;;
12768;SDS011;6448;48.916;8.990;2023-06-04T00:02:34;2.50;;;2.30;;
12768;SDS011;6448;48.916;8.990;2023-06-04T00:03:35;2.40;;;2.20;;
12768;SDS011;6448;48.916;8.990;2023-06-04T00:04:37;2.75;;;2.55;;
12768;SDS011;6448;48.916;8.990;2023-06-04T00:05:39;2.50;;;2.30;;
12768;SDS011;6448;48.916;8.990;2023-06-04T00:06:41;2.40;;;2.08;;
12768;SDS011;6448;48.916;8.990;2023-06-04T00:07:43;2.55;;;2.35;;
12768;SDS011;6448;48.916;8.990;2023-06-04T00:08:45;2.63;;;2.42;;
12768;SDS011;6448;48.916;8.990;2023-06-04T00:09:46;2.50;;;2.30;;
12768;SDS011;6448;48.916;8.990;2023-06-04T00:10:47;2.50;;;2.30;;
12768;SDS011;6448;48.916;8.990;2023-06-04T00:11:48;2.50;;;2.30;;
12768;SDS011;6448;48.916;8.990;2023-06-04T00:12:50;2.22;;;2.13;;
12768;SDS011;6448;48.916;8.990;2023-06-04T00:13:51;2.53;;;2.33;;
12768;SDS011;6448;48.916;8.990;2023-06-04T00:14:53;2.58;;;2.38;;
12768;SDS011;6448;48.916;8.990;2023-06-04T00:15:54;2.97;;;2.67;;
12768;SDS011;6448;48.916;8.990;2023-06-04T00:16:55;2.58;;;2.35;;
12768;SDS011;6448;48.916;8.990;2023-06-04T00:17:56;2.60;;;2.40;;
12768;SDS011;6448;48.916;8.990;2023-06-04T00:18:58;2.70;;;2.50;;
12768;SDS011;6448;48.916;8.990;2023-06-04T00:19:59;2.63;;;2.43;;
12768;SDS011;6448;48.916;8.990;2023-06-04T00:21:02;2.58;;;2.38;;
12768;SDS011;6448;48.916;8.990;2023-06-04T00:22:03;2.47;;;2.28;;
12768;SDS011;6448;48.916;8.990;2023-06-04T00:23:06;2.67;;;2.47;;
12768;SDS011;6448;48.916;8.990;2023-06-04T00:24:07;2.78;;;2.58;;
12768;SDS011;6448;48.916;8.990;2023-06-04T00:25:08;2.60;;;2.40;;
12768;SDS011;6448;48.916;8.990;2023-06-04T00:26:09;2.40;;;2.20;;
12768;SDS011;6448;48.916;8.990;2023-06-04T00:27:14;2.67;;;2.47;;
12768;SDS011;6448;48.916;8.990;2023-06-04T00:28:14;2.42;;;2.28;;
12768;SDS011;6448;48.916;8.990;2023-06-04T00:29:16;2.50;;;2.30;;
12768;SDS011;6448;48.916;8.990;2023-06-04T00:30:17;2.38;;;2.17;;
12768;SDS011;6448;48.916;8.990;2023-06-04T00:31:19;2.67;;;2.47;;
12768;SDS011;6448;48.916;8.990;2023-06-04T00:32:21;2.80;;;2.60;;
12768;SDS011;6448;48.916;8.990;2023-06-04T00:33:23;2.60;;;2.40;;
12768;SDS011;6448;48.916;8.990;2023-06-04T00:34:23;2.40;;;2.20;;
12768;SDS011;6448;48.916;8.990;2023-06-04T00:35:25;2.50;;;2.30;;
12768;SDS011;6448;48.916;8.990;2023-06-04T00:36:27;2.60;;;2.40;;
12768;SDS011;6448;48.916;8.990;2023-06-04T00:37:29;2.45;;;2.25;;
12768;SDS011;6448;48.916;8.990;2023-06-04T00:38:31;2.67;;;2.47;;
12768;SDS011;6448;48.916;8.990;2023-06-04T00:39:32;2.53;;;2.33;;
12768;SDS011;6448;48.916;8.990;2023-06-04T00:40:34;2.55;;;2.35;;
12768;SDS011;6448;48.916;8.990;2023-06-04T00:41:35;2.45;;;2.25;;
12768;SDS011;6448;48.916;8.990;2023-06-04T00:42:37;2.50;;;2.30;;
12768;SDS011;6448;48.916;8.990;2023-06-04T00:43:38;2.40;;;2.20;;
12768;SDS011;6448;48.916;8.990;2023-06-04T00:44:39;2.33;;;2.13;;
12768;SDS011;6448;48.916;8.990;2023-06-04T00:45:44;2.00;;;1.90;;
12768;SDS011;6448;48.916;8.990;2023-06-04T00:46:46;2.40;;;2.20;;
12768;SDS011;6448;48.916;8.990;2023-06-04T00:47:49;2.30;;;2.10;;
12768;SDS011;6448;48.916;8.990;2023-06-04T00:48:51;2.50;;;2.30;;
12768;SDS011;6448;48.916;8.990;2023-06-04T00:49:53;2.60;;;2.40;;
12768;SDS011;6448;48.916;8.990;2023-06-04T00:50:58;2.50;;;2.30;;
12768;SDS011;6448;48.916;8.990;2023-06-04T00:52:01;2.60;;;2.35;;
12768;SDS011;6448;48.916;8.990;2023-06-04T00:53:03;2.60;;;2.40;;
12768;SDS011;6448;48.916;8.990;2023-06-04T00:54:04;2.60;;;2.40;;
12768;SDS011;6448;48.916;8.990;2023-06-04T00:55:08;2.80;;;2.60;;
12768;SDS011;6448;48.916;8.990;2023-06-04T00:56:10;2.42;;;2.22;;
12768;SDS011;6448;48.916;8.990;2023-06-04T00:57:13;2.13;;;2.00;;
12768;SDS011;6448;48.916;8.990;2023-06-04T00:58:13;2.33;;;2.13;;
12768;SDS011;6448;48.916;8.990;2023-06-04T00:59:16;2.40;;;2.20;;
12768;SDS011;6448;48.916;8.990;2023-06-04T01:00:17;2.35;;;2.15;;
12768;SDS011;6448;48.916;8.990;2023-06-04T01:01:20;2.28;;;2.08;;
12768;SDS011;6448;48.916;8.990;2023-06-04T01:02:26;2.40;;;2.20;;
12768;SDS011;6448;48.916;8.990;2023-06-04T01:03:30;2.30;;;2.10;;
12768;SDS011;6448;48.916;8.990;2023-06-04T01:04:36;2.60;;;2.40;;
12768;SDS011;6448;48.916;8.990;2023-06-04T01:05:43;2.30;;;2.10;;
12768;SDS011;6448;48.916;8.990;2023-06-04T01:06:50;2.22;;;2.13;;
12768;SDS011;6448;48.916;8.990;2023-06-04T01:07:54;2.63;;;2.17;;
12768;SDS011;6448;48.916;8.990;2023-06-04T01:08:57;2.50;;;2.30;;
12768;SDS011;6448;48.916;8.990;2023-06-04T01:10:00;2.40;;;2.20;;
12768;SDS011;6448;48.916;8.990;2023-06-04T01:11:01;2.53;;;2.33;;
12768;SDS011;6448;48.916;8.990;2023-06-04T01:12:03;2.97;;;2.20;;
12768;SDS011;6448;48.916;8.990;2023-06-04T01:13:04;2.30;;;2.10;;
12768;SDS011;6448;48.916;8.990;2023-06-04T01:14:06;2.35;;;2.15;;
12768;SDS011;6448;48.916;8.990;2023-06-04T01:15:09;2.40;;;2.17;;
12768;SDS011;6448;48.916;8.990;2023-06-04T01:16:12;2.40;;;2.20;;
12768;SDS011;6448;48.916;8.990;2023-06-04T01:17:17;2.30;;;2.10;;
12768;SDS011;6448;48.916;8.990;2023-06-04T01:18:21;2.35;;;2.15;;
12768;SDS011;6448;48.916;8.990;2023-06-04T01:21:03;2.13;;;2.03;;
12768;SDS011;6448;48.916;8.990;2023-06-04T01:22:10;2.13;;;1.92;;
12768;SDS011;6448;48.916;8.990;2023-06-04T01:23:25;2.15;;;2.03;;
12768;SDS011;6448;48.916;8.990;2023-06-04T01:24:34;2.17;;;2.08;;
12768;SDS011;6448;48.916;8.990;2023-06-04T01:25:38;2.40;;;2.20;;
12768;SDS011;6448;48.916;8.990;2023-06-04T01:26:41;2.00;;;1.80;;
12768;SDS011;6448;48.916;8.990;2023-06-04T01:27:42;2.40;;;2.20;;
12768;SDS011;6448;48.916;8.990;2023-06-04T01:28:45;2.73;;;1.97;;
12768;SDS011;6448;48.916;8.990;2023-06-04T01:29:46;2.03;;;1.90;;
12768;SDS011;6448;48.916;8.990;2023-06-04T01:30:51;2.05;;;1.92;;
12768;SDS011;6448;48.916;8.990;2023-06-04T01:31:53;2.33;;;2.13;;
12768;SDS011;6448;48.916;8.990;2023-06-04T01:32:55;2.35;;;2.10;;
12768;SDS011;6448;48.916;8.990;2023-06-04T01:33:56;2.20;;;2.00;;
12768;SDS011;6448;48.916;8.990;2023-06-04T01:34:58;2.47;;;2.20;;
12768;SDS011;6448;48.916;8.990;2023-06-04T01:35:59;2.20;;;2.00;;
12768;SDS011;6448;48.916;8.990;2023-06-04T01:37:02;2.28;;;2.08;;
12768;SDS011;6448;48.916;8.990;2023-06-04T01:38:04;2.28;;;2.08;;
12768;SDS011;6448;48.916;8.990;2023-06-04T01:39:07;2.20;;;2.00;;
12768;SDS011;6448;48.916;8.990;2023-06-04T01:40:08;2.00;;;1.80;;
12768;SDS011;6448;48.916;8.990;2023-06-04T01:41:10;2.25;;;2.05;;
12768;SDS011;6448;48.916;8.990;2023-06-04T01:42:12;2.40;;;2.20;;
12768;SDS011;6448;48.916;8.990;2023-06-04T01:43:13;2.03;;;1.90;;
12768;SDS011;6448;48.916;8.990;2023-06-04T01:44:14;2.00;;;1.90;;
12768;SDS011;6448;48.916;8.990;2023-06-04T01:45:15;1.90;;;1.80;;
12768;SDS011;6448;48.916;8.990;2023-06-04T01:46:17;2.20;;;1.92;;
12768;SDS011;6448;48.916;8.990;2023-06-04T01:47:18;2.25;;;2.05;;
12768;SDS011;6448;48.916;8.990;2023-06-04T01:48:20;2.30;;;2.10;;
12768;SDS011;6448;48.916;8.990;2023-06-04T01:49:21;2.10;;;1.90;;
12768;SDS011;6448;48.916;8.990;2023-06-04T01:50:22;2.13;;;1.95;;
12768;SDS011;6448;48.916;8.990;2023-06-04T01:51:23;2.10;;;2.00;;
12768;SDS011;6448;48.916;8.990;2023-06-04T01:52:26;1.90;;;1.80;;
12768;SDS011;6448;48.916;8.990;2023-06-04T01:53:26;2.47;;;2.28;;
12768;SDS011;6448;48.916;8.990;2023-06-04T01:54:30;2.28;;;2.03;;
12768;SDS011;6448;48.916;8.990;2023-06-04T01:55:32;1.85;;;1.75;;
12768;SDS011;6448;48.916;8.990;2023-06-04T01:56:35;2.20;;;2.00;;
12768;SDS011;6448;48.916;8.990;2023-06-04T01:57:35;2.10;;;2.00;;
12768;SDS011;6448;48.916;8.990;2023-06-04T01:58:38;1.92;;;1.83;;
12768;SDS011;6448;48.916;8.990;2023-06-04T01:59:39;2.22;;;2.10;;
12768;SDS011;6448;48.916;8.990;2023-06-04T02:00:42;2.28;;;2.08;;
12768;SDS011;6448;48.916;8.990;2023-06-04T02:01:42;2.30;;;2.10;;
12768;SDS011;6448;48.916;8.990;2023-06-04T02:02:45;2.00;;;1.90;;
12768;SDS011;6448;48.916;8.990;2023-06-04T02:03:48;2.10;;;2.00;;
12768;SDS011;6448;48.916;8.990;2023-06-04T02:04:51;2.13;;;2.03;;
12768;SDS011;6448;48.916;8.990;2023-06-04T02:05:51;2.30;;;2.10;;
12768;SDS011;6448;48.916;8.990;2023-06-04T02:06:53;2.00;;;1.90;;
12768;SDS011;6448;48.916;8.990;2023-06-04T02:07:54;2.28;;;2.08;;
12768;SDS011;6448;48.916;8.990;2023-06-04T02:08:57;2.30;;;2.10;;
12768;SDS011;6448;48.916;8.990;2023-06-04T02:09:59;2.03;;;1.92;;
12768;SDS011;6448;48.916;8.990;2023-06-04T02:11:01;2.00;;;1.90;;
12768;SDS011;6448;48.916;8.990;2023-06-04T02:12:02;2.00;;;1.90;;
12768;SDS011;6448;48.916;8.990;2023-06-04T02:13:05;2.08;;;1.92;;
12768;SDS011;6448;48.916;8.990;2023-06-04T02:14:06;2.03;;;1.90;;
12768;SDS011;6448;48.916;8.990;2023-06-04T02:15:09;2.08;;;1.88;;
12768;SDS011;6448;48.916;8.990;2023-06-04T02:16:10;2.05;;;1.85;;
12768;SDS011;6448;48.916;8.990;2023-06-04T02:17:12;1.90;;;1.80;;
12768;SDS011;6448;48.916;8.990;2023-06-04T02:18:14;1.98;;;1.77;;
12768;SDS011;6448;48.916;8.990;2023-06-04T02:19:16;1.90;;;1.80;;
12768;SDS011;6448;48.916;8.990;2023-06-04T02:20:19;2.00;;;1.80;;
12768;SDS011;6448;48.916;8.990;2023-06-04T02:21:20;2.08;;;1.90;;
12768;SDS011;6448;48.916;8.990;2023-06-04T02:22:23;2.03;;;1.83;;
12768;SDS011;6448;48.916;8.990;2023-06-04T02:23:26;1.80;;;1.70;;
12768;SDS011;6448;48.916;8.990;2023-06-04T02:24:28;2.00;;;1.80;;
12768;SDS011;6448;48.916;8.990;2023-06-04T02:25:30;1.67;;;1.58;;
12768;SDS011;6448;48.916;8.990;2023-06-04T02:26:32;1.98;;;1.80;;
12768;SDS011;6448;48.916;8.990;2023-06-04T02:27:33;2.10;;;1.90;;
12768;SDS011;6448;48.916;8.990;2023-06-04T02:28:35;2.25;;;2.05;;
12768;SDS011;6448;48.916;8.990;2023-06-04T02:29:38;1.92;;;1.73;;
12768;SDS011;6448;48.916;8.990;2023-06-04T02:30:40;1.70;;;1.60;;
12768;SDS011;6448;48.916;8.990;2023-06-04T02:31:41;1.60;;;1.50;;
12768;SDS011;6448;48.916;8.990;2023-06-04T02:32:42;2.50;;;1.80;;
12768;SDS011;6448;48.916;8.990;2023-06-04T02:33:44;1.80;;;1.70;;
12768;SDS011;6448;48.916;8.990;2023-06-04T02:34:45;1.70;;;1.60;;
12768;SDS011;6448;48.916;8.990;2023-06-04T02:35:47;2.10;;;1.90;;
12768;SDS011;6448;48.916;8.990;2023-06-04T02:36:48;2.22;;;2.03;;
12768;SDS011;6448;48.916;8.990;2023-06-04T02:37:50;1.75;;;1.65;;
12768;SDS011;6448;48.916;8.990;2023-06-04T02:38:51;1.85;;;1.75;;
12768;SDS011;6448;48.916;8.990;2023-06-04T02:39:53;1.77;;;1.67;;
12768;SDS011;6448;48.916;8.990;2023-06-04T02:40:55;2.00;;;1.80;;
12768;SDS011;6448;48.916;8.990;2023-06-04T02:41:57;1.70;;;1.60;;
12768;SDS011;6448;48.916;8.990;2023-06-04T02:42:57;1.73;;;1.63;;
12768;SDS011;6448;48.916;8.990;2023-06-04T02:43:59;1.90;;;1.80;;
12768;SDS011;6448;48.916;8.990;2023-06-04T02:45:00;1.70;;;1.60;;
12768;SDS011;6448;48.916;8.990;2023-06-04T02:46:03;1.80;;;1.70;;
12768;SDS011;6448;48.916;8.990;2023-06-04T02:47:04;1.70;;;1.60;;
12768;SDS011;6448;48.916;8.990;2023-06-04T02:48:06;1.70;;;1.60;;
12768;SDS011;6448;48.916;8.990;2023-06-04T02:49:07;1.80;;;1.70;;
12768;SDS011;6448;48.916;8.990;2023-06-04T02:50:14;1.70;;;1.60;;
12768;SDS011;6448;48.916;8.990;2023-06-04T02:51:15;1.77;;;1.67;;
12768;SDS011;6448;48.916;8.990;2023-06-04T02:52:17;1.80;;;1.60;;
12768;SDS011;6448;48.916;8.990;2023-06-04T02:53:18;1.70;;;1.60;;
12768;SDS011;6448;48.916;8.990;2023-06-04T02:54:20;1.90;;;1.63;;
12768;SDS011;6448;48.916;8.990;2023-06-04T02:55:21;1.70;;;1.60;;
12768;SDS011;6448;48.916;8.990;2023-06-04T02:56:25;1.60;;;1.50;;
12768;SDS011;6448;48.916;8.990;2023-06-04T02:57:26;1.73;;;1.63;;
12768;SDS011;6448;48.916;8.990;2023-06-04T02:58:28;1.80;;;1.70;;
12768;SDS011;6448;48.916;8.990;2023-06-04T02:59:29;1.83;;;1.73;;
12768;SDS011;6448;48.916;8.990;2023-06-04T03:00:30;1.90;;;1.80;;
12768;SDS011;6448;48.916;8.990;2023-06-04T03:01:31;2.00;;;1.90;;
12768;SDS011;6448;48.916;8.990;2023-06-04T03:02:33;2.03;;;1.90;;
12768;SDS011;6448;48.916;8.990;2023-06-04T03:03:35;2.60;;;2.03;;
12768;SDS011;6448;48.916;8.990;2023-06-04T03:04:38;2.03;;;1.83;;
12768;SDS011;6448;48.916;8.990;2023-06-04T03:05:39;2.17;;;1.98;;
12768;SDS011;6448;48.916;8.990;2023-06-04T03:06:43;2.42;;;1.80;;
12768;SDS011;6448;48.916;8.990;2023-06-04T03:07:46;2.10;;;1.90;;
12768;SDS011;6448;48.916;8.990;2023-06-04T03:08:48;1.85;;;1.75;;
12768;SDS011;6448;48.916;8.990;2023-06-04T03:09:50;1.90;;;1.80;;
12768;SDS011;6448;48.916;8.990;2023-06-04T03:10:51;1.60;;;1.50;;
12768;SDS011;6448;48.916;8.990;2023-06-04T03:11:54;1.70;;;1.60;;
12768;SDS011;6448;48.916;8.990;2023-06-04T03:12:57;1.80;;;1.70;;
12768;SDS011;6448;48.916;8.990;2023-06-04T03:13:59;1.80;;;1.70;;
12768;SDS011;6448;48.916;8.990;2023-06-04T03:15:00;2.03;;;1.60;;
12768;SDS011;6448;48.916;8.990;2023-06-04T03:16:02;1.55;;;1.45;;
12768;SDS011;6448;48.916;8.990;2023-06-04T03:17:09;1.70;;;1.60;;
12768;SDS011;6448;48.916;8.990;2023-06-04T03:18:10;1.60;;;1.50;;
12768;SDS011;6448;48.916;8.990;2023-06-04T03:19:12;1.70;;;1.60;;
12768;SDS011;6448;48.916;8.990;2023-06-04T03:20:13;1.77;;;1.67;;
12768;SDS011;6448;48.916;8.990;2023-06-04T03:21:15;1.60;;;1.50;;
12768;SDS011;6448;48.916;8.990;2023-06-04T03:22:16;1.75;;;1.65;;
12768;SDS011;6448;48.916;8.990;2023-06-04T03:23:18;1.60;;;1.50;;
12768;SDS011;6448;48.916;8.990;2023-06-04T03:24:19;1.70;;;1.60;;
12768;SDS011;6448;48.916;8.990;2023-06-04T03:25:21;1.80;;;1.60;;
12768;SDS011;6448;48.916;8.990;2023-06-04T03:26:21;1.90;;;1.60;;
12768;SDS011;6448;48.916;8.990;2023-06-04T03:27:24;1.70;;;1.60;;
12768;SDS011;6448;48.916;8.990;2023-06-04T03:28:26;1.60;;;1.50;;
12768;SDS011;6448;48.916;8.990;2023-06-04T03:29:27;1.60;;;1.50;;
12768;SDS011;6448;48.916;8.990;2023-06-04T03:30:28;1.60;;;1.50;;
12768;SDS011;6448;48.916;8.990;2023-06-04T03:31:33;1.48;;;1.38;;
12768;SDS011;6448;48.916;8.990;2023-06-04T03:32:34;1.67;;;1.58;;
12768;SDS011;6448;48.916;8.990;2023-06-04T03:33:37;1.60;;;1.50;;
12768;SDS011;6448;48.916;8.990;2023-06-04T03:34:37;1.90;;;1.48;;
12768;SDS011;6448;48.916;8.990;2023-06-04T03:35:39;1.58;;;1.48;;
12768;SDS011;6448;48.916;8.990;2023-06-04T03:36:42;1.60;;;1.50;;
12768;SDS011;6448;48.916;8.990;2023-06-04T03:37:43;1.95;;;1.63;;
12768;SDS011;6448;48.916;8.990;2023-06-04T03:38:45;1.70;;;1.35;;
12768;SDS011;6448;48.916;8.990;2023-06-04T03:39:47;1.60;;;1.50;;
12768;SDS011;6448;48.916;8.990;2023-06-04T03:40:50;1.40;;;1.30;;
12768;SDS011;6448;48.916;8.990;2023-06-04T03:41:53;1.50;;;1.40;;
12768;SDS011;6448;48.916;8.990;2023-06-04T03:42:58;3.20;;;1.45;;
12768;SDS011;6448;48.916;8.990;2023-06-04T03:44:03;1.70;;;1.30;;
12768;SDS011;6448;48.916;8.990;2023-06-04T03:45:06;1.40;;;1.30;;
12768;SDS011;6448;48.916;8.990;2023-06-04T03:46:09;1.50;;;1.40;;
12768;SDS011;6448;48.916;8.990;2023-06-04T03:47:11;1.65;;;1.48;;
12768;SDS011;6448;48.916;8.990;2023-06-04T03:48:14;1.55;;;1.45;;
12768;SDS011;6448;48.916;8.990;2023-06-04T03:49:16;1.50;;;1.40;;
12768;SDS011;6448;48.916;8.990;2023-06-04T03:50:21;2.00;;;1.30;;
12768;SDS011;6448;48.916;8.990;2023-06-04T03:51:22;2.00;;;1.50;;
12768;SDS011;6448;48.916;8.990;2023-06-04T03:52:25;1.70;;;1.60;;
12768;SDS011;6448;48.916;8.990;2023-06-04T03:53:27;1.55;;;1.35;;
12768;SDS011;6448;48.916;8.990;2023-06-04T03:54:28;1.50;;;1.23;;
12768;SDS011;6448;48.916;8.990;2023-06-04T03:55:30;1.65;;;1.55;;
12768;SDS011;6448;48.916;8.990;2023-06-04T03:56:34;1.60;;;1.50;;
12768;SDS011;6448;48.916;8.990;2023-06-04T03:57:36;1.67;;;1.58;;
12768;SDS011;6448;48.916;8.990;2023-06-04T03:58:40;2.25;;;1.40;;
12768;SDS011;6448;48.916;8.990;2023-06-04T03:59:41;1.50;;;1.40;;
12768;SDS011;6448;48.916;8.990;2023-06-04T04:00:43;1.70;;;1.40;;
12768;SDS011;6448;48.916;8.990;2023-06-04T04:01:44;1.52;;;1.42;;
12768;SDS011;6448;48.916;8.990;2023-06-04T04:02:46;1.55;;;1.40;;
12768;SDS011;6448;48.916;8.990;2023-06-04T04:04:02;1.80;;;1.30;;
12768;SDS011;6448;48.916;8.990;2023-06-04T04:05:05;3.10;;;1.40;;
12768;SDS011;6448;48.916;8.990;2023-06-04T04:06:06;1.40;;;1.30;;
12768;SDS011;6448;48.916;8.990;2023-06-04T04:07:08;1.40;;;1.30;;
12768;SDS011;6448;48.916;8.990;2023-06-04T04:08:11;1.70;;;1.42;;
12768;SDS011;6448;48.916;8.990;2023-06-04T04:09:17;1.70;;;1.60;;
12768;SDS011;6448;48.916;8.990;2023-06-04T04:10:18;1.70;;;1.60;;
12768;SDS011;6448;48.916;8.990;2023-06-04T04:11:20;1.97;;;1.50;;
12768;SDS011;6448;48.916;8.990;2023-06-04T04:12:22;1.60;;;1.45;;
12768;SDS011;6448;48.916;8.990;2023-06-04T04:13:24;1.40;;;1.30;;
12768;SDS011;6448;48.916;8.990;2023-06-04T04:14:27;1.50;;;1.33;;
12768;SDS011;6448;48.916;8.990;2023-06-04T04:15:29;1.40;;;1.30;;
12768;SDS011;6448;48.916;8.990;2023-06-04T04:16:30;1.50;;;1.40;;
12768;SDS011;6448;48.916;8.990;2023-06-04T04:17:32;1.63;;;1.20;;
12768;SDS011;6448;48.916;8.990;2023-06-04T04:18:33;1.30;;;1.20;;
12768;SDS011;6448;48.916;8.990;2023-06-04T04:19:35;1.40;;;1.30;;
12768;SDS011;6448;48.916;8.990;2023-06-04T04:20:36;1.50;;;1.40;;
12768;SDS011;6448;48.916;8.990;2023-06-04T04:21:42;1.60;;;1.50;;
12768;SDS011;6448;48.916;8.990;2023-06-04T04:22:46;1.50;;;1.40;;
12768;SDS011;6448;48.916;8.990;2023-06-04T04:23:48;1.80;;;1.60;;
12768;SDS011;6448;48.916;8.990;2023-06-04T04:24:52;1.40;;;1.30;;
12768;SDS011;6448;48.916;8.990;2023-06-04T04:25:53;1.60;;;1.50;;
12768;SDS011;6448;48.916;8.990;2023-06-04T04:26:56;1.45;;;1.35;;
12768;SDS011;6448;48.916;8.990;2023-06-04T04:27:59;1.50;;;1.40;;
12768;SDS011;6448;48.916;8.990;2023-06-04T04:29:00;1.50;;;1.40;;
12768;SDS011;6448;48.916;8.990;2023-06-04T04:30:07;1.50;;;1.30;;
12768;SDS011;6448;48.916;8.990;2023-06-04T04:31:10;1.50;;;1.40;;
12768;SDS011;6448;48.916;8.990;2023-06-04T04:32:12;1.95;;;1.23;;
12768;SDS011;6448;48.916;8.990;2023-06-04T04:33:18;1.30;;;1.20;;
12768;SDS011;6448;48.916;8.990;2023-06-04T04:34:21;1.42;;;1.33;;
12768;SDS011;6448;48.916;8.990;2023-06-04T04:35:22;2.20;;;1.40;;
12768;SDS011;6448;48.916;8.990;2023-06-04T04:36:26;1.50;;;1.40;;
12768;SDS011;6448;48.916;8.990;2023-06-04T04:37:27;1.42;;;1.33;;
12768;SDS011;6448;48.916;8.990;2023-06-04T04:38:31;1.55;;;1.45;;
12768;SDS011;6448;48.916;8.990;2023-06-04T04:39:36;1.40;;;1.30;;
12768;SDS011;6448;48.916;8.990;2023-06-04T04:40:38;1.52;;;1.30;;
12768;SDS011;6448;48.916;8.990;2023-06-04T04:41:40;1.30;;;1.20;;
12768;SDS011;6448;48.916;8.990;2023-06-04T04:42:42;1.40;;;1.30;;
12768;SDS011;6448;48.916;8.990;2023-06-04T04:43:45;1.50;;;1.40;;
12768;SDS011;6448;48.916;8.990;2023-06-04T04:44:55;1.60;;;1.40;;
12768;SDS011;6448;48.916;8.990;2023-06-04T04:45:59;1.40;;;1.30;;
12768;SDS011;6448;48.916;8.990;2023-06-04T04:47:01;1.40;;;1.30;;
12768;SDS011;6448;48.916;8.990;2023-06-04T04:48:02;1.70;;;1.40;;
12768;SDS011;6448;48.916;8.990;2023-06-04T04:49:04;1.85;;;1.33;;
12768;SDS011;6448;48.916;8.990;2023-06-04T04:50:05;1.40;;;1.30;;
12768;SDS011;6448;48.916;8.990;2023-06-04T04:51:08;1.50;;;1.40;;
12768;SDS011;6448;48.916;8.990;2023-06-04T04:52:09;1.50;;;1.40;;
12768;SDS011;6448;48.916;8.990;2023-06-04T04:53:13;2.30;;;1.50;;
12768;SDS011;6448;48.916;8.990;2023-06-04T04:54:14;2.15;;;1.50;;
12768;SDS011;6448;48.916;8.990;2023-06-04T04:55:16;1.50;;;1.40;;
12768;SDS011;6448;48.916;8.990;2023-06-04T04:56:20;1.50;;;1.40;;
12768;SDS011;6448;48.916;8.990;2023-06-04T04:57:23;1.63;;;1.52;;
12768;SDS011;6448;48.916;8.990;2023-06-04T04:58:26;2.00;;;1.40;;
12768;SDS011;6448;48.916;8.990;2023-06-04T04:59:29;1.40;;;1.30;;
12768;SDS011;6448;48.916;8.990;2023-06-04T05:00:32;2.97;;;1.20;;
12768;SDS011;6448;48.916;8.990;2023-06-04T05:01:36;1.70;;;1.40;;
12768;SDS011;6448;48.916;8.990;2023-06-04T05:02:38;1.52;;;1.30;;
12768;SDS011;6448;48.916;8.990;2023-06-04T05:03:41;1.48;;;1.38;;
12768;SDS011;6448;48.916;8.990;2023-06-04T05:04:44;1.85;;;1.40;;
12768;SDS011;6448;48.916;8.990;2023-06-04T05:05:48;1.40;;;1.30;;
12768;SDS011;6448;48.916;8.990;2023-06-04T05:06:49;1.55;;;1.30;;
12768;SDS011;6448;48.916;8.990;2023-06-04T05:07:51;1.58;;;1.42;;
12768;SDS011;6448;48.916;8.990;2023-06-04T05:08:56;1.35;;;1.25;;
12768;SDS011;6448;48.916;8.990;2023-06-04T05:09:57;1.50;;;1.30;;
12768;SDS011;6448;48.916;8.990;2023-06-04T05:11:00;1.40;;;1.30;;
12768;SDS011;6448;48.916;8.990;2023-06-04T05:12:02;1.40;;;1.30;;
12768;SDS011;6448;48.916;8.990;2023-06-04T05:13:05;1.45;;;1.30;;
12768;SDS011;6448;48.916;8.990;2023-06-04T05:14:13;1.38;;;1.27;;
12768;SDS011;6448;48.916;8.990;2023-06-04T05:15:16;1.67;;;1.40;;
12768;SDS011;6448;48.916;8.990;2023-06-04T05:16:19;1.27;;;1.17;;
12768;SDS011;6448;48.916;8.990;2023-06-04T05:17:24;1.63;;;1.20;;
12768;SDS011;6448;48.916;8.990;2023-06-04T05:18:33;1.90;;;1.30;;
12768;SDS011;6448;48.916;8.990;2023-06-04T05:19:38;1.42;;;1.30;;
12768;SDS011;6448;48.916;8.990;2023-06-04T05:20:39;1.25;;;1.15;;
12768;SDS011;6448;48.916;8.990;2023-06-04T05:21:44;1.30;;;1.20;;
12768;SDS011;6448;48.916;8.990;2023-06-04T05:22:45;1.40;;;1.30;;
12768;SDS011;6448;48.916;8.990;2023-06-04T05:23:47;1.83;;;1.27;;
12768;SDS011;6448;48.916;8.990;2023-06-04T05:24:49;1.40;;;1.30;;
12768;SDS011;6448;48.916;8.990;2023-06-04T05:25:51;1.30;;;1.20;;
12768;SDS011;6448;48.916;8.990;2023-06-04T05:26:54;1.40;;;1.30;;
12768;SDS011;6448;48.916;8.990;2023-06-04T05:27:56;1.40;;;1.20;;
12768;SDS011;6448;48.916;8.990;2023-06-04T05:28:58;1.60;;;1.30;;
12768;SDS011;6448;48.916;8.990;2023-06-04T05:30:01;1.30;;;1.20;;
12768;SDS011;6448;48.916;8.990;2023-06-04T05:31:03;1.38;;;1.27;;
12768;SDS011;6448;48.916;8.990;2023-06-04T05:32:06;1.60;;;1.38;;
12768;SDS011;6448;48.916;8.990;2023-06-04T05:33:10;1.20;;;1.10;;
12768;SDS011;6448;48.916;8.990;2023-06-04T05:34:17;1.30;;;1.10;;
12768;SDS011;6448;48.916;8.990;2023-06-04T05:35:20;1.40;;;1.30;;
12768;SDS011;6448;48.916;8.990;2023-06-04T05:36:22;1.48;;;1.30;;
12768;SDS011;6448;48.916;8.990;2023-06-04T05:37:28;1.30;;;1.20;;
12768;SDS011;6448;48.916;8.990;2023-06-04T05:38:32;1.75;;;1.30;;
12768;SDS011;6448;48.916;8.990;2023-06-04T05:39:39;1.30;;;1.20;;
12768;SDS011;6448;48.916;8.990;2023-06-04T05:40:45;1.77;;;1.20;;
12768;SDS011;6448;48.916;8.990;2023-06-04T05:41:47;1.40;;;1.30;;
12768;SDS011;6448;48.916;8.990;2023-06-04T05:42:49;1.30;;;1.20;;
12768;SDS011;6448;48.916;8.990;2023-06-04T05:43:50;1.30;;;1.20;;
12768;SDS011;6448;48.916;8.990;2023-06-04T05:44:51;1.30;;;1.20;;
12768;SDS011;6448;48.916;8.990;2023-06-04T05:45:55;1.30;;;1.20;;
12768;SDS011;6448;48.916;8.990;2023-06-04T05:46:56;1.42;;;1.30;;
12768;SDS011;6448;48.916;8.990;2023-06-04T05:47:58;1.77;;;1.20;;
12768;SDS011;6448;48.916;8.990;2023-06-04T05:49:02;1.27;;;1.17;;
12768;SDS011;6448;48.916;8.990;2023-06-04T05:50:04;1.40;;;1.13;;
12768;SDS011;6448;48.916;8.990;2023-06-04T05:51:06;1.80;;;1.30;;
12768;SDS011;6448;48.916;8.990;2023-06-04T05:52:10;1.45;;;1.20;;
12768;SDS011;6448;48.916;8.990;2023-06-04T05:53:11;1.20;;;1.10;;
12768;SDS011;6448;48.916;8.990;2023-06-04T05:54:13;1.60;;;1.30;;
12768;SDS011;6448;48.916;8.990;2023-06-04T05:55:17;1.20;;;1.10;;
12768;SDS011;6448;48.916;8.990;2023-06-04T05:56:19;1.23;;;1.13;;
12768;SDS011;6448;48.916;8.990;2023-06-04T05:57:21;1.25;;;1.13;;
12768;SDS011;6448;48.916;8.990;2023-06-04T05:58:23;1.30;;;1.20;;
12768;SDS011;6448;48.916;8.990;2023-06-04T05:59:24;1.30;;;1.20;;
12768;SDS011;6448;48.916;8.990;2023-06-04T06:00:25;1.55;;;1.10;;
12768;SDS011;6448;48.916;8.990;2023-06-04T06:01:26;1.30;;;1.20;;
12768;SDS011;6448;48.916;8.990;2023-06-04T06:02:30;1.30;;;1.20;;
12768;SDS011;6448;48.916;8.990;2023-06-04T06:03:32;1.27;;;1.17;;
12768;SDS011;6448;48.916;8.990;2023-06-04T06:04:35;1.40;;;1.30;;
12768;SDS011;6448;48.916;8.990;2023-06-04T06:05:36;1.30;;;1.20;;
12768;SDS011;6448;48.916;8.990;2023-06-04T06:06:38;1.30;;;1.20;;
12768;SDS011;6448;48.916;8.990;2023-06-04T06:07:39;1.20;;;1.10;;
12768;SDS011;6448;48.916;8.990;2023-06-04T06:08:41;1.23;;;1.10;;
12768;SDS011;6448;48.916;8.990;2023-06-04T06:09:41;1.20;;;1.10;;
12768;SDS011;6448;48.916;8.990;2023-06-04T06:10:43;1.83;;;1.33;;
12768;SDS011;6448;48.916;8.990;2023-06-04T06:11:44;1.30;;;1.20;;
12768;SDS011;6448;48.916;8.990;2023-06-04T06:12:47;1.00;;;1.00;;
12768;SDS011;6448;48.916;8.990;2023-06-04T06:13:47;1.30;;;1.20;;
12768;SDS011;6448;48.916;8.990;2023-06-04T06:14:50;1.30;;;1.20;;
12768;SDS011;6448;48.916;8.990;2023-06-04T06:15:51;1.25;;;1.15;;
12768;SDS011;6448;48.916;8.990;2023-06-04T06:16:53;1.30;;;1.20;;
12768;SDS011;6448;48.916;8.990;2023-06-04T06:17:54;1.20;;;1.10;;
12768;SDS011;6448;48.916;8.990;2023-06-04T06:18:56;1.30;;;1.20;;
12768;SDS011;6448;48.916;8.990;2023-06-04T06:19:59;1.30;;;1.20;;
12768;SDS011;6448;48.916;8.990;2023-06-04T06:21:00;1.20;;;1.10;;
12768;SDS011;6448;48.916;8.990;2023-06-04T06:22:02;1.40;;;1.30;;
12768;SDS011;6448;48.916;8.990;2023-06-04T06:23:05;1.48;;;1.30;;